sensor_id;sensor_type;location;lat;lon;timestamp;P1;durP1;ratioP1;P2;durP2;ratioP2
66437;SDS011;54537;47.972;11.662;2024-01-30T00:00:34;5.32;;;2.15;;
66437;SDS011;54537;47.972;11.662;2024-01-30T00:03:01;5.43;;;2.03;;
66437;SDS011;54537;47.972;11.662;2024-01-30T00:05:28;5.30;;;2.13;;
66437;SDS011;54537;47.972;11.662;2024-01-30T00:07:55;6.53;;;2.13;;
66437;SDS011;54537;47.972;11.662;2024-01-30T00:10:21;4.78;;;1.85;;
66437;SDS011;54537;47.972;11.662;2024-01-30T00:12:48;5.72;;;2.10;;
66437;SDS011;54537;47.972;11.662;2024-01-30T00:15:14;4.15;;;1.65;;
66437;SDS011;54537;47.972;11.662;2024-01-30T00:17:41;4.75;;;2.20;;
66437;SDS011;54537;47.972;11.662;2024-01-30T00:20:08;5.93;;;2.45;;
66437;SDS011;54537;47.972;11.662;2024-01-30T00:22:37;4.57;;;1.73;;
66437;SDS011;54537;47.972;11.662;2024-01-30T00:25:03;5.57;;;1.90;;
66437;SDS011;54537;47.972;11.662;2024-01-30T00:27:31;6.78;;;2.42;;
66437;SDS011;54537;47.972;11.662;2024-01-30T00:29:57;5.60;;;2.08;;
66437;SDS011;54537;47.972;11.662;2024-01-30T00:32:24;5.05;;;2.28;;
66437;SDS011;54537;47.972;11.662;2024-01-30T00:34:50;6.13;;;2.13;;
66437;SDS011;54537;47.972;11.662;2024-01-30T00:37:17;7.80;;;3.00;;
66437;SDS011;54537;47.972;11.662;2024-01-30T00:39:45;4.13;;;1.73;;
66437;SDS011;54537;47.972;11.662;2024-01-30T00:42:11;5.45;;;2.28;;
66437;SDS011;54537;47.972;11.662;2024-01-30T00:44:38;5.32;;;1.90;;
66437;SDS011;54537;47.972;11.662;2024-01-30T00:47:04;4.45;;;2.25;;
66437;SDS011;54537;47.972;11.662;2024-01-30T00:49:31;2.88;;;1.58;;
66437;SDS011;54537;47.972;11.662;2024-01-30T00:51:57;8.52;;;2.60;;
66437;SDS011;54537;47.972;11.662;2024-01-30T00:54:24;10.40;;;3.60;;
66437;SDS011;54537;47.972;11.662;2024-01-30T00:56:52;8.63;;;3.20;;
66437;SDS011;54537;47.972;11.662;2024-01-30T00:59:18;5.97;;;2.80;;
66437;SDS011;54537;47.972;11.662;2024-01-30T01:01:45;3.30;;;1.65;;
66437;SDS011;54537;47.972;11.662;2024-01-30T01:04:11;2.67;;;1.33;;
66437;SDS011;54537;47.972;11.662;2024-01-30T01:06:38;3.95;;;1.48;;
66437;SDS011;54537;47.972;11.662;2024-01-30T01:09:04;4.30;;;1.75;;
66437;SDS011;54537;47.972;11.662;2024-01-30T01:11:32;4.30;;;1.52;;
66437;SDS011;54537;47.972;11.662;2024-01-30T01:13:59;3.75;;;1.48;;
66437;SDS011;54537;47.972;11.662;2024-01-30T01:16:26;4.38;;;1.80;;
66437;SDS011;54537;47.972;11.662;2024-01-30T01:18:52;3.90;;;1.60;;
66437;SDS011;54537;47.972;11.662;2024-01-30T01:21:19;4.72;;;1.70;;
66437;SDS011;54537;47.972;11.662;2024-01-30T01:23:45;6.90;;;1.77;;
66437;SDS011;54537;47.972;11.662;2024-01-30T01:26:12;3.55;;;1.60;;
66437;SDS011;54537;47.972;11.662;2024-01-30T01:28:39;5.35;;;1.80;;
66437;SDS011;54537;47.972;11.662;2024-01-30T01:31:07;2.10;;;1.30;;
66437;SDS011;54537;47.972;11.662;2024-01-30T01:33:33;4.72;;;1.88;;
66437;SDS011;54537;47.972;11.662;2024-01-30T01:36:02;6.70;;;1.63;;
66437;SDS011;54537;47.972;11.662;2024-01-30T01:38:28;4.75;;;1.90;;
66437;SDS011;54537;47.972;11.662;2024-01-30T01:40:55;3.55;;;1.63;;
66437;SDS011;54537;47.972;11.662;2024-01-30T01:43:21;4.70;;;1.67;;
66437;SDS011;54537;47.972;11.662;2024-01-30T01:45:48;3.35;;;1.50;;
66437;SDS011;54537;47.972;11.662;2024-01-30T01:48:16;5.15;;;1.90;;
66437;SDS011;54537;47.972;11.662;2024-01-30T01:50:42;2.25;;;1.20;;
66437;SDS011;54537;47.972;11.662;2024-01-30T01:53:09;3.78;;;1.70;;
66437;SDS011;54537;47.972;11.662;2024-01-30T01:55:36;6.15;;;1.95;;
66437;SDS011;54537;47.972;11.662;2024-01-30T01:58:03;3.35;;;1.58;;
66437;SDS011;54537;47.972;11.662;2024-01-30T02:00:30;5.05;;;1.40;;
66437;SDS011;54537;47.972;11.662;2024-01-30T02:02:57;4.32;;;1.40;;
66437;SDS011;54537;47.972;11.662;2024-01-30T02:05:26;3.83;;;1.23;;
66437;SDS011;54537;47.972;11.662;2024-01-30T02:07:52;2.38;;;1.20;;
66437;SDS011;54537;47.972;11.662;2024-01-30T02:10:19;2.88;;;1.48;;
66437;SDS011;54537;47.972;11.662;2024-01-30T02:12:46;4.75;;;1.38;;
66437;SDS011;54537;47.972;11.662;2024-01-30T02:15:13;3.05;;;1.50;;
66437;SDS011;54537;47.972;11.662;2024-01-30T02:17:39;2.80;;;1.42;;
66437;SDS011;54537;47.972;11.662;2024-01-30T02:20:06;1.88;;;1.20;;
66437;SDS011;54537;47.972;11.662;2024-01-30T02:22:35;3.08;;;1.15;;
66437;SDS011;54537;47.972;11.662;2024-01-30T02:25:02;3.05;;;1.10;;
66437;SDS011;54537;47.972;11.662;2024-01-30T02:27:29;1.35;;;1.05;;
66437;SDS011;54537;47.972;11.662;2024-01-30T02:29:56;3.88;;;1.27;;
66437;SDS011;54537;47.972;11.662;2024-01-30T02:32:22;1.95;;;0.95;;
66437;SDS011;54537;47.972;11.662;2024-01-30T02:34:49;3.00;;;1.20;;
66437;SDS011;54537;47.972;11.662;2024-01-30T02:37:16;3.22;;;1.08;;
66437;SDS011;54537;47.972;11.662;2024-01-30T02:39:44;2.60;;;1.02;;
66437;SDS011;54537;47.972;11.662;2024-01-30T02:42:10;3.83;;;1.25;;
66437;SDS011;54537;47.972;11.662;2024-01-30T02:44:37;2.97;;;0.90;;
66437;SDS011;54537;47.972;11.662;2024-01-30T02:47:04;2.40;;;1.20;;
66437;SDS011;54537;47.972;11.662;2024-01-30T02:49:30;3.20;;;1.30;;
66437;SDS011;54537;47.972;11.662;2024-01-30T02:51:57;4.70;;;1.13;;
66437;SDS011;54537;47.972;11.662;2024-01-30T02:54:23;3.25;;;1.40;;
66437;SDS011;54537;47.972;11.662;2024-01-30T02:56:51;2.60;;;1.20;;
66437;SDS011;54537;47.972;11.662;2024-01-30T02:59:17;2.55;;;1.13;;
66437;SDS011;54537;47.972;11.662;2024-01-30T03:01:44;2.53;;;1.23;;
66437;SDS011;54537;47.972;11.662;2024-01-30T03:04:11;2.63;;;1.13;;
66437;SDS011;54537;47.972;11.662;2024-01-30T03:06:38;2.45;;;1.00;;
66437;SDS011;54537;47.972;11.662;2024-01-30T03:09:04;5.78;;;2.25;;
66437;SDS011;54537;47.972;11.662;2024-01-30T03:11:31;5.40;;;1.77;;
66437;SDS011;54537;47.972;11.662;2024-01-30T03:13:59;3.60;;;1.33;;
66437;SDS011;54537;47.972;11.662;2024-01-30T03:16:25;2.55;;;1.20;;
66437;SDS011;54537;47.972;11.662;2024-01-30T03:18:51;2.53;;;1.20;;
66437;SDS011;54537;47.972;11.662;2024-01-30T03:21:18;4.28;;;1.70;;
66437;SDS011;54537;47.972;11.662;2024-01-30T03:23:44;3.25;;;1.33;;
66437;SDS011;54537;47.972;11.662;2024-01-30T03:26:11;6.40;;;1.65;;
66437;SDS011;54537;47.972;11.662;2024-01-30T03:28:38;4.80;;;1.55;;
66437;SDS011;54537;47.972;11.662;2024-01-30T03:31:06;4.20;;;1.73;;
66437;SDS011;54537;47.972;11.662;2024-01-30T03:33:32;3.80;;;1.70;;
66437;SDS011;54537;47.972;11.662;2024-01-30T03:36:02;4.25;;;1.48;;
66437;SDS011;54537;47.972;11.662;2024-01-30T03:38:29;4.20;;;1.33;;
66437;SDS011;54537;47.972;11.662;2024-01-30T03:40:57;6.40;;;1.88;;
66437;SDS011;54537;47.972;11.662;2024-01-30T03:43:24;6.32;;;2.00;;
66437;SDS011;54537;47.972;11.662;2024-01-30T03:45:50;4.20;;;1.63;;
66437;SDS011;54537;47.972;11.662;2024-01-30T03:48:18;5.65;;;2.00;;
66437;SDS011;54537;47.972;11.662;2024-01-30T03:50:46;7.63;;;1.60;;
66437;SDS011;54537;47.972;11.662;2024-01-30T03:53:12;6.03;;;1.48;;
66437;SDS011;54537;47.972;11.662;2024-01-30T03:55:39;5.03;;;1.60;;
66437;SDS011;54537;47.972;11.662;2024-01-30T03:58:05;4.03;;;1.77;;
66437;SDS011;54537;47.972;11.662;2024-01-30T04:00:31;4.97;;;1.42;;
66437;SDS011;54537;47.972;11.662;2024-01-30T04:02:58;2.72;;;1.63;;
66437;SDS011;54537;47.972;11.662;2024-01-30T04:05:26;2.55;;;1.20;;
66437;SDS011;54537;47.972;11.662;2024-01-30T04:07:52;1.67;;;0.80;;
66437;SDS011;54537;47.972;11.662;2024-01-30T04:10:19;1.30;;;0.70;;
66437;SDS011;54537;47.972;11.662;2024-01-30T04:12:45;0.93;;;0.70;;
66437;SDS011;54537;47.972;11.662;2024-01-30T04:15:12;1.73;;;0.88;;
66437;SDS011;54537;47.972;11.662;2024-01-30T04:17:39;2.35;;;0.80;;
66437;SDS011;54537;47.972;11.662;2024-01-30T04:20:06;3.58;;;0.80;;
66437;SDS011;54537;47.972;11.662;2024-01-30T04:22:34;2.08;;;0.98;;
66437;SDS011;54537;47.972;11.662;2024-01-30T04:25:00;2.88;;;1.10;;
66437;SDS011;54537;47.972;11.662;2024-01-30T04:27:28;2.38;;;0.90;;
66437;SDS011;54537;47.972;11.662;2024-01-30T04:29:54;1.52;;;0.68;;
66437;SDS011;54537;47.972;11.662;2024-01-30T04:32:21;2.65;;;0.90;;
66437;SDS011;54537;47.972;11.662;2024-01-30T04:34:47;3.53;;;1.55;;
66437;SDS011;54537;47.972;11.662;2024-01-30T04:37:14;3.38;;;1.50;;
66437;SDS011;54537;47.972;11.662;2024-01-30T04:39:41;2.85;;;1.10;;
66437;SDS011;54537;47.972;11.662;2024-01-30T04:42:08;1.60;;;0.98;;
66437;SDS011;54537;47.972;11.662;2024-01-30T04:44:34;0.95;;;0.70;;
66437;SDS011;54537;47.972;11.662;2024-01-30T04:47:01;2.50;;;0.93;;
66437;SDS011;54537;47.972;11.662;2024-01-30T04:49:28;1.45;;;0.90;;
66437;SDS011;54537;47.972;11.662;2024-01-30T04:51:55;1.95;;;1.08;;
66437;SDS011;54537;47.972;11.662;2024-01-30T04:54:22;2.63;;;0.93;;
66437;SDS011;54537;47.972;11.662;2024-01-30T04:56:49;2.78;;;1.02;;
66437;SDS011;54537;47.972;11.662;2024-01-30T04:59:16;1.83;;;0.90;;
66437;SDS011;54537;47.972;11.662;2024-01-30T05:01:42;2.30;;;0.98;;
66437;SDS011;54537;47.972;11.662;2024-01-30T05:04:09;1.30;;;0.90;;
66437;SDS011;54537;47.972;11.662;2024-01-30T05:06:36;1.35;;;0.90;;
66437;SDS011;54537;47.972;11.662;2024-01-30T05:09:03;2.00;;;0.88;;
66437;SDS011;54537;47.972;11.662;2024-01-30T05:11:29;2.17;;;0.85;;
66437;SDS011;54537;47.972;11.662;2024-01-30T05:13:57;0.90;;;0.70;;
66437;SDS011;54537;47.972;11.662;2024-01-30T05:16:24;2.78;;;0.93;;
66437;SDS011;54537;47.972;11.662;2024-01-30T05:18:50;3.55;;;0.90;;
66437;SDS011;54537;47.972;11.662;2024-01-30T05:21:17;2.80;;;0.90;;
66437;SDS011;54537;47.972;11.662;2024-01-30T05:23:43;8.43;;;1.10;;
66437;SDS011;54537;47.972;11.662;2024-01-30T05:26:10;4.70;;;1.10;;
66437;SDS011;54537;47.972;11.662;2024-01-30T05:28:36;1.80;;;1.10;;
66437;SDS011;54537;47.972;11.662;2024-01-30T05:31:04;1.27;;;0.80;;
66437;SDS011;54537;47.972;11.662;2024-01-30T05:33:31;1.95;;;1.00;;
66437;SDS011;54537;47.972;11.662;2024-01-30T05:35:57;1.83;;;1.08;;
66437;SDS011;54537;47.972;11.662;2024-01-30T05:38:24;3.50;;;0.88;;
66437;SDS011;54537;47.972;11.662;2024-01-30T05:40:50;2.25;;;0.95;;
66437;SDS011;54537;47.972;11.662;2024-01-30T05:43:17;2.10;;;1.05;;
66437;SDS011;54537;47.972;11.662;2024-01-30T05:45:43;2.70;;;1.00;;
66437;SDS011;54537;47.972;11.662;2024-01-30T05:48:11;1.08;;;0.90;;
66437;SDS011;54537;47.972;11.662;2024-01-30T05:50:38;1.45;;;0.82;;
66437;SDS011;54537;47.972;11.662;2024-01-30T05:53:04;3.63;;;1.08;;
66437;SDS011;54537;47.972;11.662;2024-01-30T05:55:31;3.33;;;0.93;;
66437;SDS011;54537;47.972;11.662;2024-01-30T05:57:57;5.28;;;0.90;;
66437;SDS011;54537;47.972;11.662;2024-01-30T06:00:24;2.15;;;0.70;;
66437;SDS011;54537;47.972;11.662;2024-01-30T06:02:50;2.67;;;0.80;;
66437;SDS011;54537;47.972;11.662;2024-01-30T06:05:18;2.25;;;0.70;;
66437;SDS011;54537;47.972;11.662;2024-01-30T06:07:44;1.92;;;0.73;;
66437;SDS011;54537;47.972;11.662;2024-01-30T06:10:11;1.73;;;0.63;;
66437;SDS011;54537;47.972;11.662;2024-01-30T06:12:37;0.80;;;0.55;;
66437;SDS011;54537;47.972;11.662;2024-01-30T06:15:05;2.65;;;0.90;;
66437;SDS011;54537;47.972;11.662;2024-01-30T06:17:32;2.33;;;0.70;;
66437;SDS011;54537;47.972;11.662;2024-01-30T06:19:59;1.60;;;0.90;;
66437;SDS011;54537;47.972;11.662;2024-01-30T06:22:26;1.45;;;0.85;;
66437;SDS011;54537;47.972;11.662;2024-01-30T06:24:53;3.58;;;0.93;;
66437;SDS011;54537;47.972;11.662;2024-01-30T06:27:19;0.93;;;0.63;;
66437;SDS011;54537;47.972;11.662;2024-01-30T06:29:46;2.28;;;0.88;;
66437;SDS011;54537;47.972;11.662;2024-01-30T06:32:12;1.67;;;0.65;;
66437;SDS011;54537;47.972;11.662;2024-01-30T06:34:40;5.43;;;1.23;;
66437;SDS011;54537;47.972;11.662;2024-01-30T06:37:09;3.88;;;1.58;;
66437;SDS011;54537;47.972;11.662;2024-01-30T06:39:37;5.50;;;1.67;;
66437;SDS011;54537;47.972;11.662;2024-01-30T06:42:04;3.17;;;1.20;;
66437;SDS011;54537;47.972;11.662;2024-01-30T06:44:30;3.20;;;0.90;;
66437;SDS011;54537;47.972;11.662;2024-01-30T06:46:57;1.98;;;0.95;;
66437;SDS011;54537;47.972;11.662;2024-01-30T06:49:23;2.70;;;0.95;;
66437;SDS011;54537;47.972;11.662;2024-01-30T06:51:50;8.38;;;1.10;;
66437;SDS011;54537;47.972;11.662;2024-01-30T06:54:16;2.53;;;1.08;;
66437;SDS011;54537;47.972;11.662;2024-01-30T06:56:44;2.15;;;0.93;;
66437;SDS011;54537;47.972;11.662;2024-01-30T06:59:11;3.03;;;0.98;;
66437;SDS011;54537;47.972;11.662;2024-01-30T07:01:37;5.78;;;1.10;;
66437;SDS011;54537;47.972;11.662;2024-01-30T07:04:03;2.53;;;1.23;;
66437;SDS011;54537;47.972;11.662;2024-01-30T07:06:30;5.75;;;1.88;;
66437;SDS011;54537;47.972;11.662;2024-01-30T07:08:56;10.30;;;1.50;;
66437;SDS011;54537;47.972;11.662;2024-01-30T07:11:23;2.65;;;0.98;;
66437;SDS011;54537;47.972;11.662;2024-01-30T07:13:51;1.83;;;0.82;;
66437;SDS011;54537;47.972;11.662;2024-01-30T07:16:18;4.20;;;1.00;;
66437;SDS011;54537;47.972;11.662;2024-01-30T07:18:44;1.60;;;0.82;;
66437;SDS011;54537;47.972;11.662;2024-01-30T07:21:11;5.60;;;1.10;;
66437;SDS011;54537;47.972;11.662;2024-01-30T07:23:38;2.50;;;0.82;;
66437;SDS011;54537;47.972;11.662;2024-01-30T07:26:04;2.58;;;0.77;;
66437;SDS011;54537;47.972;11.662;2024-01-30T07:28:31;4.03;;;1.25;;
66437;SDS011;54537;47.972;11.662;2024-01-30T07:30:59;1.35;;;1.00;;
66437;SDS011;54537;47.972;11.662;2024-01-30T07:33:26;2.63;;;1.10;;
66437;SDS011;54537;47.972;11.662;2024-01-30T07:35:52;3.38;;;1.02;;
66437;SDS011;54537;47.972;11.662;2024-01-30T07:38:19;3.13;;;0.90;;
66437;SDS011;54537;47.972;11.662;2024-01-30T07:40:46;1.35;;;0.95;;
66437;SDS011;54537;47.972;11.662;2024-01-30T07:43:12;5.45;;;1.70;;
66437;SDS011;54537;47.972;11.662;2024-01-30T07:45:39;1.98;;;1.17;;
66437;SDS011;54537;47.972;11.662;2024-01-30T07:48:07;2.53;;;1.00;;
66437;SDS011;54537;47.972;11.662;2024-01-30T07:50:34;3.03;;;1.08;;
66437;SDS011;54537;47.972;11.662;2024-01-30T07:53:00;3.30;;;1.00;;
66437;SDS011;54537;47.972;11.662;2024-01-30T07:55:27;2.38;;;1.02;;
66437;SDS011;54537;47.972;11.662;2024-01-30T07:57:54;4.15;;;1.20;;
66437;SDS011;54537;47.972;11.662;2024-01-30T08:00:20;3.22;;;1.40;;
66437;SDS011;54537;47.972;11.662;2024-01-30T08:02:47;13.35;;;2.17;;
66437;SDS011;54537;47.972;11.662;2024-01-30T08:05:15;31.90;;;4.28;;
66437;SDS011;54537;47.972;11.662;2024-01-30T08:07:42;19.83;;;3.60;;
66437;SDS011;54537;47.972;11.662;2024-01-30T08:10:08;6.10;;;1.85;;
66437;SDS011;54537;47.972;11.662;2024-01-30T08:12:37;4.95;;;1.77;;
66437;SDS011;54537;47.972;11.662;2024-01-30T08:15:04;4.20;;;1.60;;
66437;SDS011;54537;47.972;11.662;2024-01-30T08:17:31;2.95;;;1.13;;
66437;SDS011;54537;47.972;11.662;2024-01-30T08:19:58;3.20;;;1.38;;
66437;SDS011;54537;47.972;11.662;2024-01-30T08:22:26;5.07;;;1.42;;
66437;SDS011;54537;47.972;11.662;2024-01-30T08:24:52;5.65;;;1.33;;
66437;SDS011;54537;47.972;11.662;2024-01-30T08:27:19;4.90;;;1.40;;
66437;SDS011;54537;47.972;11.662;2024-01-30T08:29:45;2.65;;;1.40;;
66437;SDS011;54537;47.972;11.662;2024-01-30T08:32:12;3.40;;;1.23;;
66437;SDS011;54537;47.972;11.662;2024-01-30T08:34:38;2.17;;;1.05;;
66437;SDS011;54537;47.972;11.662;2024-01-30T08:37:05;5.50;;;2.03;;
66437;SDS011;54537;47.972;11.662;2024-01-30T08:39:33;6.07;;;3.17;;
66437;SDS011;54537;47.972;11.662;2024-01-30T08:41:59;5.95;;;2.88;;
66437;SDS011;54537;47.972;11.662;2024-01-30T08:44:26;6.35;;;1.60;;
66437;SDS011;54537;47.972;11.662;2024-01-30T08:46:53;6.63;;;1.67;;
66437;SDS011;54537;47.972;11.662;2024-01-30T08:49:19;5.72;;;1.77;;
66437;SDS011;54537;47.972;11.662;2024-01-30T08:51:46;4.78;;;1.60;;
66437;SDS011;54537;47.972;11.662;2024-01-30T08:54:13;6.95;;;1.30;;
66437;SDS011;54537;47.972;11.662;2024-01-30T08:56:41;3.58;;;1.33;;
66437;SDS011;54537;47.972;11.662;2024-01-30T08:59:08;3.75;;;1.52;;
66437;SDS011;54537;47.972;11.662;2024-01-30T09:04:01;6.47;;;1.50;;
66437;SDS011;54537;47.972;11.662;2024-01-30T09:11:22;4.72;;;1.60;;
66437;SDS011;54537;47.972;11.662;2024-01-30T09:13:50;7.85;;;1.83;;
66437;SDS011;54537;47.972;11.662;2024-01-30T09:16:17;4.43;;;1.33;;
66437;SDS011;54537;47.972;11.662;2024-01-30T09:18:43;3.95;;;1.52;;
66437;SDS011;54537;47.972;11.662;2024-01-30T09:21:10;8.05;;;1.52;;
66437;SDS011;54537;47.972;11.662;2024-01-30T09:23:36;7.22;;;1.80;;
66437;SDS011;54537;47.972;11.662;2024-01-30T09:26:03;6.68;;;2.15;;
66437;SDS011;54537;47.972;11.662;2024-01-30T09:28:30;4.85;;;1.58;;
66437;SDS011;54537;47.972;11.662;2024-01-30T09:30:57;3.55;;;1.45;;
66437;SDS011;54537;47.972;11.662;2024-01-30T09:33:24;5.22;;;1.80;;
66437;SDS011;54537;47.972;11.662;2024-01-30T09:35:50;5.85;;;1.52;;
66437;SDS011;54537;47.972;11.662;2024-01-30T09:38:17;4.55;;;1.60;;
66437;SDS011;54537;47.972;11.662;2024-01-30T09:40:44;4.78;;;1.50;;
66437;SDS011;54537;47.972;11.662;2024-01-30T09:43:11;8.57;;;1.95;;
66437;SDS011;54537;47.972;11.662;2024-01-30T09:45:41;6.10;;;1.75;;
66437;SDS011;54537;47.972;11.662;2024-01-30T09:48:11;3.78;;;1.48;;
66437;SDS011;54537;47.972;11.662;2024-01-30T09:50:37;3.65;;;1.60;;
66437;SDS011;54537;47.972;11.662;2024-01-30T09:53:04;4.68;;;1.48;;
66437;SDS011;54537;47.972;11.662;2024-01-30T09:55:32;3.72;;;1.60;;
66437;SDS011;54537;47.972;11.662;2024-01-30T09:57:59;4.07;;;1.58;;
66437;SDS011;54537;47.972;11.662;2024-01-30T10:00:26;2.80;;;1.40;;
66437;SDS011;54537;47.972;11.662;2024-01-30T10:02:52;3.30;;;1.60;;
66437;SDS011;54537;47.972;11.662;2024-01-30T10:05:20;3.50;;;1.33;;
66437;SDS011;54537;47.972;11.662;2024-01-30T10:07:50;3.38;;;1.42;;
66437;SDS011;54537;47.972;11.662;2024-01-30T10:10:19;3.05;;;1.50;;
66437;SDS011;54537;47.972;11.662;2024-01-30T10:12:45;6.07;;;1.42;;
66437;SDS011;54537;47.972;11.662;2024-01-30T10:15:12;1.70;;;1.00;;
66437;SDS011;54537;47.972;11.662;2024-01-30T10:17:39;1.58;;;0.90;;
66437;SDS011;54537;47.972;11.662;2024-01-30T10:20:06;1.70;;;0.80;;
66437;SDS011;54537;47.972;11.662;2024-01-30T10:22:35;0.93;;;0.80;;
66437;SDS011;54537;47.972;11.662;2024-01-30T10:25:01;1.45;;;0.90;;
66437;SDS011;54537;47.972;11.662;2024-01-30T10:27:28;1.25;;;0.80;;
66437;SDS011;54537;47.972;11.662;2024-01-30T10:29:55;1.55;;;0.60;;
66437;SDS011;54537;47.972;11.662;2024-01-30T10:32:21;1.65;;;0.88;;
66437;SDS011;54537;47.972;11.662;2024-01-30T10:34:48;1.13;;;0.65;;
66437;SDS011;54537;47.972;11.662;2024-01-30T10:37:15;1.52;;;0.60;;
66437;SDS011;54537;47.972;11.662;2024-01-30T10:39:43;1.98;;;1.00;;
66437;SDS011;54537;47.972;11.662;2024-01-30T10:42:11;1.65;;;0.82;;
66437;SDS011;54537;47.972;11.662;2024-01-30T10:47:25;1.90;;;1.02;;
66437;SDS011;54537;47.972;11.662;2024-01-30T10:49:53;1.27;;;0.63;;
66437;SDS011;54537;47.972;11.662;2024-01-30T10:52:20;2.10;;;0.90;;
66437;SDS011;54537;47.972;11.662;2024-01-30T10:54:48;1.52;;;0.80;;
66437;SDS011;54537;47.972;11.662;2024-01-30T10:57:16;2.33;;;1.00;;
66437;SDS011;54537;47.972;11.662;2024-01-30T10:59:43;1.85;;;0.98;;
66437;SDS011;54537;47.972;11.662;2024-01-30T11:02:11;3.00;;;1.10;;
66437;SDS011;54537;47.972;11.662;2024-01-30T11:04:37;5.15;;;1.40;;
66437;SDS011;54537;47.972;11.662;2024-01-30T11:07:13;4.28;;;1.63;;
66437;SDS011;54537;47.972;11.662;2024-01-30T11:09:41;4.68;;;1.90;;
66437;SDS011;54537;47.972;11.662;2024-01-30T11:12:12;4.00;;;1.63;;
66437;SDS011;54537;47.972;11.662;2024-01-30T11:14:38;6.82;;;2.03;;
66437;SDS011;54537;47.972;11.662;2024-01-30T11:17:05;4.57;;;1.63;;
66437;SDS011;54537;47.972;11.662;2024-01-30T11:19:32;3.35;;;1.52;;
66437;SDS011;54537;47.972;11.662;2024-01-30T11:21:59;3.65;;;1.45;;
66437;SDS011;54537;47.972;11.662;2024-01-30T11:24:26;3.92;;;1.48;;
66437;SDS011;54537;47.972;11.662;2024-01-30T11:26:55;6.15;;;1.30;;
66437;SDS011;54537;47.972;11.662;2024-01-30T11:29:25;4.65;;;1.23;;
66437;SDS011;54537;47.972;11.662;2024-01-30T11:31:52;2.28;;;1.10;;
66437;SDS011;54537;47.972;11.662;2024-01-30T11:34:18;2.22;;;1.30;;
66437;SDS011;54537;47.972;11.662;2024-01-30T11:36:47;3.65;;;1.20;;
66437;SDS011;54537;47.972;11.662;2024-01-30T11:39:18;3.33;;;1.75;;
66437;SDS011;54537;47.972;11.662;2024-01-30T11:41:46;3.35;;;1.48;;
66437;SDS011;54537;47.972;11.662;2024-01-30T11:44:15;2.92;;;1.30;;
66437;SDS011;54537;47.972;11.662;2024-01-30T11:46:42;6.10;;;1.67;;
66437;SDS011;54537;47.972;11.662;2024-01-30T11:49:09;7.57;;;1.38;;
66437;SDS011;54537;47.972;11.662;2024-01-30T11:51:36;3.30;;;1.17;;
66437;SDS011;54537;47.972;11.662;2024-01-30T11:54:02;3.28;;;1.30;;
66437;SDS011;54537;47.972;11.662;2024-01-30T11:56:28;2.60;;;1.00;;
66437;SDS011;54537;47.972;11.662;2024-01-30T11:58:55;2.65;;;1.00;;
66437;SDS011;54537;47.972;11.662;2024-01-30T12:01:21;3.85;;;1.20;;
66437;SDS011;54537;47.972;11.662;2024-01-30T12:03:50;2.60;;;1.10;;
66437;SDS011;54537;47.972;11.662;2024-01-30T12:06:17;5.18;;;1.00;;
66437;SDS011;54537;47.972;11.662;2024-01-30T12:08:54;4.55;;;1.10;;
66437;SDS011;54537;47.972;11.662;2024-01-30T12:11:22;2.30;;;0.85;;
66437;SDS011;54537;47.972;11.662;2024-01-30T12:13:49;1.42;;;0.90;;
66437;SDS011;54537;47.972;11.662;2024-01-30T12:16:16;2.03;;;0.90;;
66437;SDS011;54537;47.972;11.662;2024-01-30T12:18:42;2.28;;;1.00;;
66437;SDS011;54537;47.972;11.662;2024-01-30T12:21:10;1.42;;;0.90;;
66437;SDS011;54537;47.972;11.662;2024-01-30T12:23:36;2.80;;;1.20;;
66437;SDS011;54537;47.972;11.662;2024-01-30T12:26:03;1.77;;;1.20;;
66437;SDS011;54537;47.972;11.662;2024-01-30T12:28:32;2.55;;;1.30;;
66437;SDS011;54537;47.972;11.662;2024-01-30T12:31:01;3.42;;;1.30;;
66437;SDS011;54537;47.972;11.662;2024-01-30T12:33:28;5.72;;;2.33;;
66437;SDS011;54537;47.972;11.662;2024-01-30T12:35:55;7.28;;;2.92;;
66437;SDS011;54537;47.972;11.662;2024-01-30T12:38:23;3.30;;;1.50;;
66437;SDS011;54537;47.972;11.662;2024-01-30T12:40:53;3.50;;;1.90;;
66437;SDS011;54537;47.972;11.662;2024-01-30T12:43:20;2.00;;;1.17;;
66437;SDS011;54537;47.972;11.662;2024-01-30T12:45:47;3.67;;;1.30;;
66437;SDS011;54537;47.972;11.662;2024-01-30T12:48:14;4.88;;;1.58;;
66437;SDS011;54537;47.972;11.662;2024-01-30T12:50:40;2.83;;;1.42;;
66437;SDS011;54537;47.972;11.662;2024-01-30T12:53:07;2.58;;;1.30;;
66437;SDS011;54537;47.972;11.662;2024-01-30T12:55:35;3.65;;;1.40;;
66437;SDS011;54537;47.972;11.662;2024-01-30T12:58:02;4.95;;;1.55;;
66437;SDS011;54537;47.972;11.662;2024-01-30T13:00:28;3.78;;;1.65;;
66437;SDS011;54537;47.972;11.662;2024-01-30T13:02:55;3.63;;;1.58;;
66437;SDS011;54537;47.972;11.662;2024-01-30T13:05:21;5.88;;;1.60;;
66437;SDS011;54537;47.972;11.662;2024-01-30T13:07:49;4.50;;;1.70;;
66437;SDS011;54537;47.972;11.662;2024-01-30T13:10:15;3.28;;;1.50;;
66437;SDS011;54537;47.972;11.662;2024-01-30T13:12:43;4.35;;;1.85;;
66437;SDS011;54537;47.972;11.662;2024-01-30T13:15:10;4.38;;;1.63;;
66437;SDS011;54537;47.972;11.662;2024-01-30T13:17:36;4.30;;;1.65;;
66437;SDS011;54537;47.972;11.662;2024-01-30T13:20:03;2.05;;;1.20;;
66437;SDS011;54537;47.972;11.662;2024-01-30T13:22:30;3.65;;;1.52;;
66437;SDS011;54537;47.972;11.662;2024-01-30T13:24:57;3.33;;;1.33;;
66437;SDS011;54537;47.972;11.662;2024-01-30T13:27:23;2.90;;;1.30;;
66437;SDS011;54537;47.972;11.662;2024-01-30T13:29:51;3.53;;;1.40;;
66437;SDS011;54537;47.972;11.662;2024-01-30T13:32:18;3.45;;;1.40;;
66437;SDS011;54537;47.972;11.662;2024-01-30T13:34:44;3.90;;;1.58;;
66437;SDS011;54537;47.972;11.662;2024-01-30T13:37:11;3.00;;;1.40;;
66437;SDS011;54537;47.972;11.662;2024-01-30T13:39:37;3.30;;;1.60;;
66437;SDS011;54537;47.972;11.662;2024-01-30T13:42:05;2.33;;;1.20;;
66437;SDS011;54537;47.972;11.662;2024-01-30T13:44:31;3.10;;;1.30;;
66437;SDS011;54537;47.972;11.662;2024-01-30T13:46:59;4.10;;;1.40;;
66437;SDS011;54537;47.972;11.662;2024-01-30T13:49:25;4.25;;;1.55;;
66437;SDS011;54537;47.972;11.662;2024-01-30T13:51:52;3.58;;;1.48;;
66437;SDS011;54537;47.972;11.662;2024-01-30T13:54:18;2.28;;;1.20;;
66437;SDS011;54537;47.972;11.662;2024-01-30T13:56:45;3.40;;;1.53;;
66437;SDS011;54537;47.972;11.662;2024-01-30T13:59:11;3.90;;;1.42;;
66437;SDS011;54537;47.972;11.662;2024-01-30T14:01:38;3.85;;;1.42;;
66437;SDS011;54537;47.972;11.662;2024-01-30T14:04:06;2.65;;;1.40;;
66437;SDS011;54537;47.972;11.662;2024-01-30T14:06:32;5.03;;;1.75;;
66437;SDS011;54537;47.972;11.662;2024-01-30T14:08:59;4.03;;;1.45;;
66437;SDS011;54537;47.972;11.662;2024-01-30T14:11:25;2.67;;;1.23;;
66437;SDS011;54537;47.972;11.662;2024-01-30T14:13:52;3.53;;;1.30;;
66437;SDS011;54537;47.972;11.662;2024-01-30T14:16:18;2.58;;;1.33;;
66437;SDS011;54537;47.972;11.662;2024-01-30T14:18:45;2.75;;;1.38;;
66437;SDS011;54537;47.972;11.662;2024-01-30T14:21:13;2.85;;;1.40;;
66437;SDS011;54537;47.972;11.662;2024-01-30T14:23:39;2.85;;;1.40;;
66437;SDS011;54537;47.972;11.662;2024-01-30T14:26:06;2.55;;;1.35;;
66437;SDS011;54537;47.972;11.662;2024-01-30T14:28:32;4.50;;;1.60;;
66437;SDS011;54537;47.972;11.662;2024-01-30T14:30:59;5.73;;;1.50;;
66437;SDS011;54537;47.972;11.662;2024-01-30T14:33:26;2.92;;;1.30;;
66437;SDS011;54537;47.972;11.662;2024-01-30T14:35:53;2.95;;;1.30;;
66437;SDS011;54537;47.972;11.662;2024-01-30T14:38:20;4.05;;;1.45;;
66437;SDS011;54537;47.972;11.662;2024-01-30T14:40:47;2.90;;;1.40;;